METAR Data
IDs: Format: Raw Decoded Include TAF

Data at: 0717 UTC 03 Aug 2021

KBNA 030653Z 00000KT 10SM CLR 19/14 A3003 RMK AO2 SLP161 T01890144 $
KBNA 030553Z 33003KT 10SM CLR 21/14 A3004 RMK AO2 SLP165 T02060139 10272 20194 403000194 58005 $
KBNA 030453Z 00000KT 10SM CLR 21/14 A3005 RMK AO2 SLP168 T02060139 $